Time;durP1;ratioP1;P1;durP2;ratioP2;P2;SDS_P1;SDS_P2;PMS_P1;PMS_P2;Temp;Humidity;BMP_temperature;BMP_pressure;BME280_temperature;BME280_humidity;BME280_pressure;Samples;Min_cycle;Max_cycle;Signal;HPM_P1;HPM_P2
2022/03/13 00:00:59;;;;;;;0.10;0.10;;;3.50;1.00;226.50;231333.00;;;;4982434;28;20208;-69
2022/03/13 00:03:28;;;;;;;0.10;0.10;;;3.50;1.00;226.50;231333.00;;;;4982560;28;20227;-69
2022/03/13 00:05:57;;;;;;;0.10;0.10;;;3.40;1.00;226.50;231333.00;;;;4982625;28;20726;-69
2022/03/13 00:08:29;;;;;;;0.10;0.10;;;3.50;1.00;226.50;231333.00;;;;4985039;28;20201;-68
2022/03/13 00:11:00;;;;;;;0.10;0.10;;;3.40;1.00;226.50;231333.00;;;;4986764;28;20271;-71
2022/03/13 00:13:31;;;;;;;0.10;0.10;;;3.30;1.00;226.50;231333.00;;;;4990829;28;20196;-69
2022/03/13 00:16:03;;;;;;;0.10;0.10;;;3.30;1.00;226.50;231333.00;;;;4989344;28;20209;-69
2022/03/13 00:18:32;;;;;;;0.10;0.10;;;3.30;1.00;226.50;231333.00;;;;4990734;28;20612;-69
2022/03/13 00:21:04;;;;;;;0.10;0.10;;;3.20;1.00;226.50;231333.00;;;;4987984;28;20212;-69
2022/03/13 00:23:35;;;;;;;0.10;0.10;;;3.20;1.00;226.50;231333.00;;;;4987290;28;20283;-69
2022/03/13 00:26:04;;;;;;;0.10;0.10;;;3.20;1.00;226.50;231333.00;;;;4986552;28;20211;-69
2022/03/13 00:28:32;;;;;;;0.10;0.10;;;3.20;1.00;226.50;231333.00;;;;4983582;28;20204;-69
2022/03/13 00:31:04;;;;;;;0.20;0.20;;;3.10;1.00;226.50;231333.00;;;;4982734;28;20225;-69
2022/03/13 00:33:33;;;;;;;0.10;0.10;;;3.20;1.00;226.50;231333.00;;;;4984428;28;20207;-69
2022/03/13 00:36:01;;;;;;;0.10;0.10;;;3.20;1.00;226.50;231333.00;;;;4984238;28;20198;-71
2022/03/13 00:38:30;;;;;;;0.10;0.10;;;3.10;1.00;226.50;231333.00;;;;4983990;28;20239;-69
2022/03/13 00:41:01;;;;;;;0.10;0.10;;;3.00;1.00;226.50;231333.00;;;;4982897;28;20204;-69
2022/03/13 00:43:29;;;;;;;0.10;0.10;;;3.00;1.00;226.50;231333.00;;;;4983533;28;20200;-68
2022/03/13 00:45:57;;;;;;;0.10;0.10;;;3.00;1.00;226.50;231333.00;;;;4982267;28;20270;-68
2022/03/13 00:48:28;;;;;;;0.10;0.10;;;3.00;1.00;226.50;231333.00;;;;4984522;28;20216;-69
2022/03/13 00:50:59;;;;;;;0.10;0.10;;;3.00;1.00;226.50;231333.00;;;;4984364;28;20252;-69
2022/03/13 00:53:27;;;;;;;0.10;0.10;;;3.00;1.00;226.50;231333.00;;;;4980198;28;20551;-68
2022/03/13 00:55:55;;;;;;;0.10;0.10;;;3.00;1.00;226.50;231333.00;;;;4981599;28;20215;-68
2022/03/13 00:58:24;;;;;;;0.10;0.10;;;2.90;1.00;226.50;231333.00;;;;4981377;28;20201;-69
2022/03/13 01:00:56;;;;;;;0.10;0.10;;;2.90;1.00;226.50;231333.00;;;;4981462;28;20554;-69
2022/03/13 01:03:48;;;;;;;0.10;0.10;;;2.90;1.00;226.50;231333.00;;;;4981964;28;20227;-68
2022/03/13 01:06:18;;;;;;;0.10;0.10;;;2.90;1.00;226.50;231333.00;;;;4979842;28;20244;-69
2022/03/13 01:08:49;;;;;;;0.10;0.10;;;2.90;1.00;226.50;231333.00;;;;4981408;28;20565;-69
2022/03/13 01:11:20;;;;;;;0.10;0.10;;;2.90;1.00;226.50;231333.00;;;;4980241;28;20200;-69
2022/03/13 01:13:51;;;;;;;0.10;0.10;;;2.80;1.00;226.50;231333.00;;;;4981845;28;20200;-69
2022/03/13 01:16:22;;;;;;;0.10;0.10;;;2.80;1.00;226.50;231333.00;;;;4981397;28;20233;-70
2022/03/13 01:18:53;;;;;;;0.10;0.10;;;2.80;1.00;226.50;231333.00;;;;4980493;28;20200;-69
2022/03/13 01:21:21;;;;;;;0.10;0.10;;;2.80;1.00;226.50;231333.00;;;;4980597;28;20193;-71
2022/03/13 01:24:27;;;;;;;0.10;0.10;;;2.80;1.00;226.50;231333.00;;;;4980651;28;20208;-69
2022/03/13 01:27:02;;;;;;;0.20;0.20;;;2.90;1.00;226.50;231333.00;;;;4982836;28;20209;-69
2022/03/13 01:29:34;;;;;;;0.10;0.10;;;2.80;1.00;226.50;231333.00;;;;4981360;28;20228;-69
2022/03/13 01:32:02;;;;;;;0.10;0.10;;;2.80;1.00;226.50;231333.00;;;;4980524;28;20264;-69
2022/03/13 01:34:48;;;;;;;0.10;0.10;;;2.80;1.00;226.50;231333.00;;;;4982519;28;20243;-69
2022/03/13 01:37:33;;;;;;;0.10;0.10;;;2.80;1.00;226.50;231333.00;;;;4980608;28;20291;-69
2022/03/13 01:40:08;;;;;;;0.10;0.10;;;2.80;1.00;226.50;231333.00;;;;4980953;28;20208;-69
2022/03/13 01:42:40;;;;;;;0.10;0.10;;;2.70;1.00;226.50;231333.00;;;;4981266;28;20193;-68
2022/03/13 01:45:13;;;;;;;0.10;0.10;;;2.70;1.00;226.50;231333.00;;;;4980211;28;20275;-68
2022/03/13 01:47:42;;;;;;;0.10;0.10;;;2.60;1.00;226.50;231333.00;;;;4980258;28;20197;-68
2022/03/13 01:50:12;;;;;;;0.10;0.10;;;2.70;1.00;226.50;231333.00;;;;4980933;28;20224;-69
2022/03/13 01:52:46;;;;;;;0.10;0.10;;;2.60;1.00;226.50;231333.00;;;;4981464;28;20659;-68
2022/03/13 01:55:16;;;;;;;0.20;0.20;;;2.70;1.00;226.50;231333.00;;;;4980253;28;20675;-69
2022/03/13 01:57:47;;;;;;;0.08;0.08;;;2.60;1.00;226.50;231333.00;;;;4979728;28;20193;-68
2022/03/13 02:00:20;;;;;;;0.10;0.10;;;2.60;1.00;226.50;231333.00;;;;4978627;28;20229;-68
2022/03/13 02:02:48;;;;;;;0.10;0.10;;;2.60;1.00;226.50;231333.00;;;;4963227;28;20748;-69
2022/03/13 02:05:32;;;;;;;0.10;0.10;;;2.60;1.00;226.50;231333.00;;;;4980078;28;20240;-69
2022/03/13 02:08:05;;;;;;;0.10;0.10;;;2.60;1.00;226.50;231333.00;;;;4980900;28;20783;-69
2022/03/13 02:10:33;;;;;;;0.10;0.10;;;2.70;1.00;226.50;231333.00;;;;4980634;28;20263;-70
2022/03/13 02:13:01;;;;;;;0.10;0.10;;;2.70;1.00;226.50;231333.00;;;;4980616;28;20232;-70
2022/03/13 02:15:33;;;;;;;0.10;0.10;;;2.70;1.00;226.50;231333.00;;;;4984174;28;20196;-70
2022/03/13 02:18:06;;;;;;;0.10;0.10;;;2.70;1.00;226.50;231333.00;;;;4984447;28;20719;-69
2022/03/13 02:20:41;;;;;;;0.10;0.10;;;2.70;1.00;226.50;231333.00;;;;4984861;28;20233;-69
2022/03/13 02:23:21;;;;;;;0.10;0.10;;;2.70;1.00;226.50;231333.00;;;;4984934;28;20209;-70
2022/03/13 02:25:51;;;;;;;0.10;0.10;;;2.70;1.00;226.50;231333.00;;;;4982573;28;20248;-70
2022/03/13 02:28:21;;;;;;;0.10;0.10;;;2.70;1.00;226.50;231333.00;;;;4984667;28;20208;-70
2022/03/13 02:30:50;;;;;;;0.10;0.10;;;2.70;1.00;226.50;231333.00;;;;4985263;28;20241;-70
2022/03/13 02:33:21;;;;;;;0.10;0.10;;;2.60;1.00;226.50;231333.00;;;;4983984;28;20232;-70
2022/03/13 02:35:54;;;;;;;0.10;0.10;;;2.70;1.00;226.50;231333.00;;;;4983693;28;20201;-70
2022/03/13 02:38:24;;;;;;;0.00;0.00;;;2.60;1.00;226.50;231333.00;;;;4983503;28;20200;-70
2022/03/13 02:40:53;;;;;;;0.10;0.10;;;2.60;1.00;226.50;231333.00;;;;4985018;28;20293;-70
2022/03/13 02:43:21;;;;;;;0.10;0.10;;;2.60;1.00;226.50;231333.00;;;;4983995;28;20200;-71
2022/03/13 02:45:52;;;;;;;0.20;0.20;;;2.60;1.00;226.50;231333.00;;;;4984238;28;20247;-67
2022/03/13 02:48:20;;;;;;;0.10;0.10;;;2.60;1.00;226.50;231333.00;;;;4984041;28;20205;-70
2022/03/13 02:50:49;;;;;;;0.10;0.10;;;2.60;1.00;226.50;231333.00;;;;4984240;28;20232;-70
2022/03/13 02:53:18;;;;;;;0.10;0.10;;;2.80;1.00;226.50;231333.00;;;;4984513;28;20200;-70
2022/03/13 02:55:48;;;;;;;0.10;0.10;;;2.70;1.00;226.50;231333.00;;;;4984284;28;20260;-67
2022/03/13 02:58:18;;;;;;;0.10;0.10;;;2.60;1.00;226.50;231333.00;;;;4984341;28;20210;-70
2022/03/13 03:00:50;;;;;;;0.10;0.10;;;2.60;1.00;226.50;231333.00;;;;4983826;28;20221;-71
2022/03/13 03:03:20;;;;;;;0.10;0.10;;;2.60;1.00;226.50;231333.00;;;;4983820;28;20233;-71
2022/03/13 03:05:49;;;;;;;0.10;0.10;;;2.60;1.00;226.50;231333.00;;;;4983178;28;20247;-71
2022/03/13 03:08:19;;;;;;;0.10;0.10;;;2.60;1.00;226.50;231333.00;;;;4983107;28;20706;-71
2022/03/13 03:10:49;;;;;;;0.10;0.10;;;2.60;1.00;226.50;231333.00;;;;4982212;28;20275;-70
2022/03/13 03:13:17;;;;;;;0.10;0.10;;;2.70;1.00;226.50;231333.00;;;;4983708;28;20231;-70
2022/03/13 03:15:45;;;;;;;0.10;0.10;;;2.80;1.00;226.50;231333.00;;;;4984101;28;20259;-71
2022/03/13 03:18:14;;;;;;;0.10;0.10;;;2.80;1.00;226.50;231333.00;;;;4984567;28;20196;-71
2022/03/13 03:20:42;;;;;;;0.10;0.10;;;2.80;1.00;226.50;231333.00;;;;4984355;28;20228;-71
2022/03/13 03:23:10;;;;;;;0.10;0.10;;;2.80;1.00;226.50;231333.00;;;;4984331;28;20224;-71
2022/03/13 03:25:39;;;;;;;0.10;0.10;;;2.70;1.00;226.50;231333.00;;;;4982837;28;20213;-71
2022/03/13 03:28:17;;;;;;;0.10;0.10;;;2.80;1.00;226.50;231333.00;;;;4984441;28;20200;-71
2022/03/13 03:30:45;;;;;;;0.10;0.10;;;2.80;1.00;226.50;231333.00;;;;4985061;28;20236;-71
2022/03/13 03:33:13;;;;;;;0.10;0.10;;;2.80;1.00;226.50;231333.00;;;;4986244;28;20224;-71
2022/03/13 03:35:41;;;;;;;0.10;0.10;;;2.80;1.00;226.50;231333.00;;;;4985832;28;20188;-71
2022/03/13 03:38:11;;;;;;;0.05;0.05;;;2.80;1.00;226.50;231333.00;;;;4986104;28;20197;-71
2022/03/13 03:40:39;;;;;;;0.10;0.10;;;2.80;1.00;226.50;231333.00;;;;4986378;28;20285;-71
2022/03/13 03:43:07;;;;;;;0.10;0.10;;;2.60;1.00;226.50;231333.00;;;;4986583;28;20192;-71
2022/03/13 03:45:36;;;;;;;0.10;0.10;;;2.50;1.00;226.50;231333.00;;;;4983901;28;20209;-71
2022/03/13 03:48:05;;;;;;;0.10;0.10;;;2.50;1.00;226.50;231333.00;;;;4982697;28;20244;-71
2022/03/13 03:50:33;;;;;;;0.10;0.10;;;2.60;1.00;226.50;231333.00;;;;4983580;28;20217;-71
2022/03/13 03:53:01;;;;;;;0.10;0.10;;;2.60;1.00;226.50;231333.00;;;;4983637;28;20208;-71
2022/03/13 03:55:29;;;;;;;0.10;0.10;;;2.70;1.00;226.50;231333.00;;;;4984089;28;20248;-71
2022/03/13 03:57:57;;;;;;;0.10;0.10;;;2.60;1.00;226.50;231333.00;;;;4983038;28;20614;-73
2022/03/13 04:00:26;;;;;;;0.10;0.10;;;2.50;1.00;226.50;231333.00;;;;4982589;28;20224;-71
2022/03/13 04:02:56;;;;;;;0.10;0.10;;;2.50;1.00;226.50;231333.00;;;;4983522;28;20196;-71
2022/03/13 04:05:24;;;;;;;0.10;0.10;;;2.40;1.00;226.50;231333.00;;;;4984200;28;20203;-71
2022/03/13 04:07:52;;;;;;;0.20;0.20;;;2.40;1.00;226.50;231333.00;;;;4983087;28;20251;-71
2022/03/13 04:10:20;;;;;;;0.10;0.10;;;2.40;1.00;226.50;231333.00;;;;4982536;28;20224;-72
2022/03/13 04:12:48;;;;;;;0.10;0.10;;;2.40;1.00;226.50;231333.00;;;;4982713;28;20617;-71
2022/03/13 04:15:16;;;;;;;0.10;0.10;;;2.40;1.00;226.50;231333.00;;;;4983887;28;20204;-71
2022/03/13 04:17:45;;;;;;;0.10;0.10;;;2.40;1.00;226.50;231333.00;;;;4982381;28;20191;-72
2022/03/13 04:20:14;;;;;;;0.20;0.20;;;2.40;1.00;226.50;231333.00;;;;4981878;28;20486;-72
2022/03/13 04:22:42;;;;;;;0.10;0.10;;;2.50;1.00;226.50;231333.00;;;;4982157;28;20221;-71
2022/03/13 04:25:11;;;;;;;0.10;0.10;;;2.50;1.00;226.50;231333.00;;;;4983055;28;20197;-72
2022/03/13 04:27:39;;;;;;;0.10;0.10;;;2.40;1.00;226.50;231333.00;;;;4983569;28;20205;-71
2022/03/13 04:30:09;;;;;;;0.10;0.10;;;2.50;1.00;226.50;231333.00;;;;4982342;28;20299;-72
2022/03/13 04:32:37;;;;;;;0.10;0.10;;;2.40;1.00;226.50;231333.00;;;;4981758;28;20192;-72
2022/03/13 04:35:06;;;;;;;0.10;0.10;;;2.40;1.00;226.50;231333.00;;;;4982703;28;20188;-72
2022/03/13 04:37:35;;;;;;;0.10;0.10;;;2.40;1.00;226.50;231333.00;;;;4981522;28;20808;-72
2022/03/13 04:40:04;;;;;;;0.10;0.10;;;2.40;1.00;226.50;231333.00;;;;4964647;28;20224;-72
2022/03/13 04:42:32;;;;;;;0.10;0.10;;;2.40;1.00;226.50;231333.00;;;;4981738;28;20567;-72
2022/03/13 04:45:04;;;;;;;0.20;0.20;;;2.50;1.00;226.50;231333.00;;;;4982314;28;20705;-72
2022/03/13 04:47:34;;;;;;;0.10;0.10;;;2.60;1.00;226.50;231333.00;;;;4981374;28;20204;-72
2022/03/13 04:50:02;;;;;;;0.10;0.10;;;2.50;1.00;226.50;231333.00;;;;4981177;28;20217;-72
2022/03/13 04:52:30;;;;;;;0.10;0.10;;;2.40;1.00;226.50;231333.00;;;;4982905;28;20556;-72
2022/03/13 04:54:59;;;;;;;0.10;0.10;;;2.50;1.00;226.50;231333.00;;;;4982752;28;20181;-71
2022/03/13 04:57:27;;;;;;;0.05;0.05;;;2.60;1.00;226.50;231333.00;;;;4982869;28;20195;-73
2022/03/13 04:59:55;;;;;;;0.10;0.10;;;2.70;1.00;226.50;231333.00;;;;4985163;28;20231;-72
2022/03/13 05:02:22;;;;;;;0.10;0.10;;;2.70;1.00;226.50;231333.00;;;;4982195;28;20220;-72
2022/03/13 05:04:51;;;;;;;0.10;0.10;;;2.70;1.00;226.50;231333.00;;;;4982472;28;20218;-72
2022/03/13 05:07:22;;;;;;;0.17;0.17;;;2.60;1.00;226.50;231333.00;;;;4981577;28;20220;-72
2022/03/13 05:09:50;;;;;;;0.10;0.10;;;2.60;1.00;226.50;231333.00;;;;4982352;28;20299;-73
2022/03/13 05:12:21;;;;;;;0.17;0.17;;;2.70;1.00;226.50;231333.00;;;;4981149;28;20200;-72
2022/03/13 05:14:50;;;;;;;0.13;0.13;;;2.70;1.00;226.50;231333.00;;;;4981047;28;20197;-71
2022/03/13 05:17:18;;;;;;;0.10;0.10;;;2.60;1.00;226.50;231333.00;;;;4980936;28;20200;-72
2022/03/13 05:19:47;;;;;;;0.10;0.10;;;2.60;1.00;226.50;231333.00;;;;4981494;28;20212;-72
2022/03/13 05:22:15;;;;;;;0.10;0.10;;;2.60;1.00;226.50;231333.00;;;;4981699;28;20682;-71
2022/03/13 05:24:43;;;;;;;0.10;0.10;;;2.50;1.00;226.50;231333.00;;;;4981514;28;20201;-72
2022/03/13 05:27:11;;;;;;;0.10;0.10;;;2.40;1.00;226.50;231333.00;;;;4980553;28;20705;-72
2022/03/13 05:29:40;;;;;;;0.10;0.10;;;2.50;1.00;226.50;231333.00;;;;4980752;28;20228;-72
2022/03/13 05:32:09;;;;;;;0.10;0.10;;;2.50;1.00;226.50;231333.00;;;;4981964;28;20240;-72
2022/03/13 05:34:37;;;;;;;0.10;0.10;;;2.50;1.00;226.50;231333.00;;;;4981982;28;20197;-72
2022/03/13 05:37:06;;;;;;;0.10;0.10;;;2.50;1.00;226.50;231333.00;;;;4980925;28;20204;-72
2022/03/13 05:39:34;;;;;;;0.17;0.17;;;2.40;1.00;226.50;231333.00;;;;4980991;28;20697;-71
2022/03/13 05:42:06;;;;;;;0.10;0.10;;;2.40;1.00;226.50;231333.00;;;;4981525;28;20275;-70
2022/03/13 05:44:37;;;;;;;0.10;0.10;;;2.30;1.00;226.50;231333.00;;;;4980608;28;20747;-70
2022/03/13 05:47:06;;;;;;;0.03;0.03;;;2.30;1.00;226.50;231333.00;;;;4980792;28;20198;-71
2022/03/13 05:49:34;;;;;;;0.10;0.10;;;2.20;1.00;226.50;231333.00;;;;4983461;28;20639;-71
2022/03/13 05:52:04;;;;;;;0.10;0.10;;;2.10;1.00;226.50;231333.00;;;;4985449;28;20197;-71
2022/03/13 05:54:32;;;;;;;0.10;0.10;;;2.10;1.00;226.50;231333.00;;;;4985640;28;20213;-71
2022/03/13 05:57:04;;;;;;;0.10;0.10;;;2.20;1.00;226.50;231333.00;;;;4983897;28;20235;-69
2022/03/13 05:59:33;;;;;;;0.10;0.10;;;2.20;1.00;226.50;231333.00;;;;4985335;28;20283;-71
2022/03/13 06:02:02;;;;;;;0.10;0.10;;;2.10;1.00;226.50;231333.00;;;;4984849;28;20826;-71
2022/03/13 06:04:33;;;;;;;0.10;0.10;;;2.10;1.00;226.50;231333.00;;;;4985061;28;20197;-72
2022/03/13 06:07:01;;;;;;;0.20;0.20;;;2.10;1.00;226.50;231333.00;;;;4984043;28;20307;-69
2022/03/13 06:09:29;;;;;;;0.10;0.10;;;2.20;1.00;226.50;231333.00;;;;4984765;28;20251;-68
2022/03/13 06:11:57;;;;;;;0.10;0.10;;;2.20;1.00;226.50;231333.00;;;;4985031;28;20209;-71
2022/03/13 06:14:26;;;;;;;0.10;0.10;;;2.30;1.00;226.50;231333.00;;;;4985317;28;20613;-73
2022/03/13 06:16:54;;;;;;;0.10;0.10;;;2.30;1.00;226.50;231333.00;;;;4986663;28;20643;-73
2022/03/13 06:19:22;;;;;;;0.10;0.10;;;2.40;1.00;226.50;231333.00;;;;4985183;28;20217;-73
2022/03/13 06:21:52;;;;;;;0.10;0.10;;;2.30;1.00;226.50;231333.00;;;;4985516;28;20197;-70
2022/03/13 06:24:20;;;;;;;0.10;0.10;;;2.40;1.00;226.50;231333.00;;;;4984700;28;20541;-71
2022/03/13 06:26:48;;;;;;;0.10;0.10;;;2.50;1.00;226.50;231333.00;;;;4983689;28;20196;-72
2022/03/13 06:29:16;;;;;;;0.10;0.10;;;2.50;1.00;226.50;231333.00;;;;4984253;28;20255;-71
2022/03/13 06:31:44;;;;;;;0.10;0.10;;;2.50;1.00;226.50;231333.00;;;;4983541;28;20729;-71
2022/03/13 06:34:12;;;;;;;0.10;0.10;;;2.60;1.00;226.50;231333.00;;;;4983832;28;20197;-72
2022/03/13 06:36:40;;;;;;;0.10;0.10;;;2.60;1.00;226.50;231333.00;;;;4984184;28;20197;-71
2022/03/13 06:39:09;;;;;;;0.10;0.10;;;2.70;1.00;226.50;231333.00;;;;4984253;28;20255;-72
2022/03/13 06:41:38;;;;;;;0.10;0.10;;;2.80;1.00;226.50;231333.00;;;;4984143;28;20201;-71
2022/03/13 06:44:06;;;;;;;0.10;0.10;;;2.80;1.00;226.50;231333.00;;;;4982810;28;20224;-71
2022/03/13 06:46:35;;;;;;;0.15;0.15;;;2.90;1.00;226.50;231333.00;;;;4983718;28;20201;-71
2022/03/13 06:49:05;;;;;;;0.10;0.10;;;2.90;1.00;226.50;231333.00;;;;4983613;28;20192;-70
2022/03/13 06:51:39;;;;;;;0.10;0.10;;;3.00;1.00;226.50;231333.00;;;;4983793;28;20251;-70
2022/03/13 06:54:11;;;;;;;0.10;0.10;;;3.10;1.00;226.50;231333.00;;;;4984115;28;20295;-71
2022/03/13 06:56:40;;;;;;;0.10;0.10;;;3.20;1.00;226.50;231333.00;;;;4982466;28;20251;-71
2022/03/13 06:59:08;;;;;;;0.10;0.10;;;3.20;1.00;226.50;231333.00;;;;4982333;28;20200;-70
2022/03/13 07:01:37;;;;;;;0.10;0.10;;;3.30;1.00;226.50;231333.00;;;;4984504;28;21516;-71
2022/03/13 07:04:05;;;;;;;0.03;0.03;;;3.30;1.00;226.50;231333.00;;;;4982368;28;20217;-71
2022/03/13 07:06:33;;;;;;;0.10;0.10;;;3.40;1.00;226.50;231333.00;;;;4983349;28;20209;-71
2022/03/13 07:09:03;;;;;;;0.10;0.10;;;3.40;1.00;226.50;231333.00;;;;4984749;28;20287;-71
2022/03/13 07:11:34;;;;;;;0.10;0.10;;;3.50;1.00;226.50;231333.00;;;;4983589;28;20208;-71
2022/03/13 07:14:08;;;;;;;0.10;0.10;;;3.60;1.00;226.50;231333.00;;;;4983189;28;20681;-71
2022/03/13 07:16:36;;;;;;;0.20;0.20;;;3.70;1.00;226.50;231333.00;;;;4984006;28;20200;-70
2022/03/13 07:19:04;;;;;;;0.10;0.10;;;3.90;1.00;226.50;231333.00;;;;4982417;28;20601;-71
2022/03/13 07:21:32;;;;;;;0.10;0.10;;;4.00;1.00;226.50;231333.00;;;;4984087;28;20703;-71
2022/03/13 07:24:00;;;;;;;0.10;0.10;;;4.00;1.00;226.50;231333.00;;;;4983631;28;20279;-71
2022/03/13 07:26:28;;;;;;;0.10;0.10;;;4.10;1.00;226.50;231333.00;;;;4985686;28;20213;-71
2022/03/13 07:28:57;;;;;;;0.10;0.10;;;4.20;1.00;226.50;231333.00;;;;4988109;28;20308;-70
2022/03/13 07:31:25;;;;;;;0.10;0.10;;;4.30;1.00;226.50;231333.00;;;;4987633;28;20268;-69
2022/03/13 07:33:53;;;;;;;0.10;0.10;;;4.50;1.00;226.50;231333.00;;;;4988057;28;20574;-69
2022/03/13 07:36:21;;;;;;;0.10;0.10;;;4.50;1.00;226.50;231333.00;;;;4987926;28;20248;-69
2022/03/13 07:38:49;;;;;;;0.10;0.10;;;4.60;1.00;226.50;231333.00;;;;4987464;28;20213;-70
2022/03/13 07:41:21;;;;;;;0.10;0.10;;;4.70;1.00;226.50;231333.00;;;;4986426;28;20247;-69
2022/03/13 07:43:49;;;;;;;0.10;0.10;;;4.80;1.00;226.50;231333.00;;;;4986068;28;20232;-69
2022/03/13 07:46:18;;;;;;;0.10;0.10;;;4.80;1.00;226.50;231333.00;;;;4982793;28;20205;-71
2022/03/13 07:48:46;;;;;;;0.10;0.10;;;4.80;1.00;226.50;231333.00;;;;4983279;28;20200;-70
2022/03/13 07:51:17;;;;;;;0.10;0.10;;;4.90;1.00;226.50;231333.00;;;;4980618;28;20227;-69
2022/03/13 07:53:45;;;;;;;0.10;0.10;;;5.00;1.00;226.50;231333.00;;;;4983577;28;20216;-69
2022/03/13 07:56:13;;;;;;;0.10;0.10;;;5.10;1.00;226.50;231333.00;;;;4980942;28;20204;-69
2022/03/13 07:58:41;;;;;;;0.10;0.10;;;5.10;1.00;226.50;231333.00;;;;4983389;28;20258;-69
2022/03/13 08:01:09;;;;;;;0.10;0.10;;;5.20;1.00;226.50;231333.00;;;;4982048;28;20268;-69
2022/03/13 08:03:39;;;;;;;0.10;0.10;;;5.20;1.00;226.50;231333.00;;;;4982209;28;20752;-69
2022/03/13 08:06:07;;;;;;;0.10;0.10;;;5.30;1.00;226.50;231333.00;;;;4981882;28;20682;-69
2022/03/13 08:08:38;;;;;;;0.10;0.10;;;5.40;1.00;226.50;231333.00;;;;4981986;28;20212;-70
2022/03/13 08:11:07;;;;;;;0.05;0.05;;;5.40;1.00;226.50;231333.00;;;;4981194;28;20217;-68
2022/03/13 08:13:35;;;;;;;0.10;0.10;;;5.50;1.00;226.50;231333.00;;;;4982026;28;20201;-69
2022/03/13 08:16:03;;;;;;;0.10;0.10;;;5.50;1.00;226.50;231333.00;;;;4981524;28;20756;-69
2022/03/13 08:18:34;;;;;;;0.10;0.10;;;5.60;1.00;226.50;231333.00;;;;4981852;28;20215;-69
2022/03/13 08:21:04;;;;;;;0.10;0.10;;;5.70;1.00;226.50;231333.00;;;;4982728;28;20291;-69
2022/03/13 08:23:34;;;;;;;0.10;0.10;;;5.80;1.00;226.50;231333.00;;;;4982250;28;20259;-69
2022/03/13 08:26:02;;;;;;;0.10;0.10;;;5.80;1.00;226.50;231333.00;;;;4981188;28;20193;-69
2022/03/13 08:28:31;;;;;;;0.10;0.10;;;5.90;1.00;226.50;231333.00;;;;4981207;28;20255;-69
2022/03/13 08:30:59;;;;;;;0.10;0.10;;;6.00;1.00;226.50;231333.00;;;;4980610;28;20227;-69
2022/03/13 08:33:27;;;;;;;0.10;0.10;;;5.90;1.00;226.50;231333.00;;;;4981848;28;20192;-69
2022/03/13 08:35:55;;;;;;;0.10;0.10;;;6.10;1.00;226.50;231333.00;;;;4980166;28;20204;-69
2022/03/13 08:38:24;;;;;;;0.10;0.10;;;6.20;1.00;226.50;231333.00;;;;4980929;28;20192;-68
2022/03/13 08:40:52;;;;;;;0.10;0.10;;;6.20;1.00;226.50;231333.00;;;;4980113;28;20272;-69
2022/03/13 08:43:20;;;;;;;0.10;0.10;;;6.30;1.00;226.50;231333.00;;;;4965407;28;20280;-69
2022/03/13 08:45:48;;;;;;;0.10;0.10;;;6.40;1.00;226.50;231333.00;;;;4981709;28;20190;-69
2022/03/13 08:48:22;;;;;;;0.10;0.10;;;6.50;1.00;226.50;231333.00;;;;4981768;28;20728;-69
2022/03/13 08:50:50;;;;;;;0.08;0.08;;;6.50;1.00;226.50;231333.00;;;;4963695;28;20279;-70
2022/03/13 08:53:18;;;;;;;0.10;0.10;;;6.50;1.00;226.50;231333.00;;;;4981657;28;20204;-69
2022/03/13 08:55:49;;;;;;;0.10;0.10;;;6.60;1.00;226.50;231333.00;;;;4979660;28;20193;-69
2022/03/13 08:58:17;;;;;;;0.10;0.10;;;6.70;1.00;226.50;231333.00;;;;4961575;28;20785;-69
2022/03/13 09:00:45;;;;;;;0.10;0.10;;;6.70;1.00;226.50;231333.00;;;;4980092;28;20216;-69
2022/03/13 09:03:13;;;;;;;0.10;0.10;;;6.80;1.00;226.50;231333.00;;;;4981244;28;20207;-69
2022/03/13 09:05:41;;;;;;;0.10;0.10;;;6.80;1.00;226.50;231333.00;;;;4981881;28;20555;-69
2022/03/13 09:08:09;;;;;;;0.03;0.03;;;6.80;1.00;226.50;231333.00;;;;4980666;28;20196;-69
2022/03/13 09:10:37;;;;;;;0.10;0.10;;;6.90;1.00;226.50;231333.00;;;;4980967;28;20217;-69
2022/03/13 09:13:06;;;;;;;0.10;0.10;;;7.00;1.00;226.50;231333.00;;;;4981422;28;20192;-69
2022/03/13 09:15:37;;;;;;;0.10;0.10;;;7.10;1.00;226.50;231333.00;;;;4980773;28;20280;-71
2022/03/13 09:18:05;;;;;;;0.10;0.10;;;7.10;1.00;226.50;231333.00;;;;4980822;28;20250;-71
2022/03/13 09:20:33;;;;;;;0.10;0.10;;;7.20;1.00;226.50;231333.00;;;;4981038;28;20297;-70
2022/03/13 09:23:02;;;;;;;0.10;0.10;;;7.30;1.00;226.50;231333.00;;;;4981963;28;20203;-69
2022/03/13 09:25:31;;;;;;;0.10;0.10;;;7.40;1.00;226.50;231333.00;;;;4985113;28;20224;-69
2022/03/13 09:27:59;;;;;;;0.10;0.10;;;7.40;1.00;226.50;231333.00;;;;4986120;28;20212;-69
2022/03/13 09:30:28;;;;;;;0.10;0.10;;;7.60;1.00;226.50;231333.00;;;;4986468;28;20240;-69
2022/03/13 09:32:56;;;;;;;0.10;0.10;;;7.60;1.00;226.50;231333.00;;;;4985437;28;20197;-69
2022/03/13 09:35:24;;;;;;;0.10;0.10;;;7.60;1.00;226.50;231333.00;;;;4985134;28;20264;-69
2022/03/13 09:37:52;;;;;;;0.10;0.10;;;7.70;1.00;226.50;231333.00;;;;4985999;28;20201;-69
2022/03/13 09:40:21;;;;;;;0.10;0.10;;;7.70;1.00;226.50;231333.00;;;;4984625;28;20216;-69
2022/03/13 09:42:49;;;;;;;0.10;0.10;;;7.90;1.00;226.50;231333.00;;;;4984676;28;20284;-69
2022/03/13 09:45:17;;;;;;;0.10;0.10;;;8.00;1.00;226.50;231333.00;;;;4983613;28;20357;-71
2022/03/13 09:47:47;;;;;;;0.10;0.10;;;8.10;1.00;226.50;231333.00;;;;4983887;28;20223;-70
2022/03/13 09:50:16;;;;;;;0.10;0.10;;;8.10;1.00;226.50;231333.00;;;;4984027;28;20220;-70
2022/03/13 09:52:44;;;;;;;0.10;0.10;;;8.10;1.00;226.50;231333.00;;;;4984454;28;20205;-70
2022/03/13 09:55:14;;;;;;;0.10;0.10;;;8.20;1.00;226.50;231333.00;;;;4984020;28;20258;-72
2022/03/13 09:57:46;;;;;;;0.10;0.10;;;8.30;1.00;226.50;231333.00;;;;4984536;28;20741;-70
2022/03/13 10:00:18;;;;;;;0.10;0.10;;;8.40;1.00;226.50;231333.00;;;;4983859;28;20263;-70
2022/03/13 10:02:53;;;;;;;0.10;0.10;;;8.40;1.00;226.50;231333.00;;;;4968798;28;20219;-70
2022/03/13 10:05:24;;;;;;;0.10;0.10;;;8.40;1.00;226.50;231333.00;;;;4984471;28;20274;-70
2022/03/13 10:07:57;;;;;;;0.10;0.10;;;8.40;1.00;226.50;231333.00;;;;4967093;28;20287;-70
2022/03/13 10:10:29;;;;;;;0.10;0.10;;;8.50;1.00;226.50;231333.00;;;;4984733;28;20568;-69
2022/03/13 10:13:00;;;;;;;0.10;0.10;;;8.50;1.00;226.50;231333.00;;;;4984820;28;20196;-70
2022/03/13 10:15:30;;;;;;;0.10;0.10;;;8.60;1.00;226.50;231333.00;;;;4983539;28;20197;-69
2022/03/13 10:18:11;;;;;;;0.10;0.10;;;8.60;1.00;226.50;231333.00;;;;4983822;28;20193;-69
2022/03/13 10:20:41;;;;;;;0.10;0.10;;;8.60;1.00;226.50;231333.00;;;;4984138;28;20220;-70
2022/03/13 10:23:15;;;;;;;0.00;0.00;;;8.70;1.00;226.50;231333.00;;;;4982715;28;20223;-70
2022/03/13 10:25:45;;;;;;;0.10;0.10;;;8.70;1.00;226.50;231333.00;;;;4984304;28;20212;-69
2022/03/13 10:28:18;;;;;;;0.10;0.10;;;8.70;1.00;226.50;231333.00;;;;4985940;28;20204;-69
2022/03/13 10:30:49;;;;;;;0.10;0.10;;;8.90;1.00;226.50;231333.00;;;;4986421;28;20322;-69
2022/03/13 10:33:19;;;;;;;0.10;0.10;;;9.00;1.00;226.50;231333.00;;;;4985107;28;20208;-70
2022/03/13 10:35:48;;;;;;;0.10;0.10;;;9.10;1.00;226.50;231333.00;;;;4984593;28;20243;-71
2022/03/13 10:38:23;;;;;;;0.10;0.10;;;9.10;1.00;226.50;231333.00;;;;4983568;28;20205;-70
2022/03/13 10:40:56;;;;;;;0.10;0.10;;;9.10;1.00;226.50;231333.00;;;;4984058;28;20228;-70
2022/03/13 10:43:26;;;;;;;0.10;0.10;;;9.20;1.00;226.50;231333.00;;;;4983800;28;20216;-70
2022/03/13 10:45:56;;;;;;;0.10;0.10;;;9.20;1.00;226.50;231333.00;;;;4983228;28;20637;-70
2022/03/13 10:48:29;;;;;;;0.10;0.10;;;9.20;1.00;226.50;231333.00;;;;4985207;28;20204;-70
2022/03/13 10:50:59;;;;;;;0.10;0.10;;;9.20;1.00;226.50;231333.00;;;;4984371;28;20212;-70
2022/03/13 10:53:28;;;;;;;0.10;0.10;;;9.30;1.00;226.50;231333.00;;;;4984496;28;20205;-70
2022/03/13 10:56:11;;;;;;;0.10;0.10;;;9.40;1.00;226.50;231333.00;;;;4984331;28;20223;-70
2022/03/13 10:58:42;;;;;;;0.10;0.10;;;9.60;1.00;226.50;231333.00;;;;4984974;28;20197;-70
2022/03/13 11:01:12;;;;;;;0.10;0.10;;;9.70;1.00;226.50;231333.00;;;;4983951;28;20626;-70
2022/03/13 11:03:51;;;;;;;0.10;0.10;;;9.80;1.00;226.50;231333.00;;;;4984173;28;20194;-70
2022/03/13 11:06:21;;;;;;;0.10;0.10;;;9.90;1.00;226.50;231333.00;;;;4984650;28;20624;-70